SHT3L EGCC-EGLL
Flight info
| Callsign | SHT3L |
|---|---|
| Flight time | 0h 32m |
| Altitude | 19000 |
| Route | LISTO2S LISTO L612 HON HON2H |
| Aircraft | A320/M-SDE3FGHIRWY/LB1 |
Departure
| Time | 2026-05-05 10:36 |
|---|---|
| Airport | Manchester Airport (EGCC) |
Arrival
| Time | 2026-05-05 11:09 |
|---|---|
| Airport | London Heathrow Airport (EGLL) |
| Time | Latitude | Longitude | Altitude | Speed | Heading |
|---|---|---|---|---|---|
| 2026-05-05 10:14 | 53.36951 | -2.28700 | 233 ft | 0 kts | 135° |
| 2026-05-05 10:25 | 53.36953 | -2.28703 | 233 ft | 2 kts | 135° |
| 2026-05-05 10:25 | 53.36965 | -2.28724 | 234 ft | 3 kts | 115° |
| 2026-05-05 10:25 | 53.36968 | -2.28743 | 233 ft | 2 kts | 125° |
| 2026-05-05 10:26 | 53.36981 | -2.28759 | 236 ft | 2 kts | 197° |
| 2026-05-05 10:26 | 53.36993 | -2.28747 | 234 ft | 0 kts | 227° |
| 2026-05-05 10:26 | 53.36992 | -2.28748 | 235 ft | 1 kts | 227° |
| 2026-05-05 10:27 | 53.36971 | -2.28788 | 233 ft | 8 kts | 229° |
| 2026-05-05 10:27 | 53.36929 | -2.28871 | 233 ft | 11 kts | 230° |
| 2026-05-05 10:27 | 53.36876 | -2.28974 | 233 ft | 11 kts | 229° |
| 2026-05-05 10:27 | 53.36817 | -2.29051 | 233 ft | 13 kts | 202° |
| 2026-05-05 10:28 | 53.36724 | -2.29049 | 233 ft | 16 kts | 135° |
| 2026-05-05 10:28 | 53.36640 | -2.28909 | 233 ft | 19 kts | 135° |
| 2026-05-05 10:28 | 53.36555 | -2.28726 | 233 ft | 21 kts | 126° |
| 2026-05-05 10:28 | 53.36450 | -2.28526 | 233 ft | 24 kts | 134° |
| 2026-05-05 10:29 | 53.36338 | -2.28300 | 233 ft | 26 kts | 136° |
| 2026-05-05 10:29 | 53.36220 | -2.28132 | 233 ft | 16 kts | 167° |
| 2026-05-05 10:29 | 53.36120 | -2.28117 | 233 ft | 17 kts | 135° |
| 2026-05-05 10:29 | 53.36018 | -2.27946 | 233 ft | 25 kts | 133° |
| 2026-05-05 10:30 | 53.35875 | -2.27853 | 233 ft | 24 kts | 185° |
| 2026-05-05 10:30 | 53.35696 | -2.27884 | 233 ft | 27 kts | 186° |
| 2026-05-05 10:30 | 53.35550 | -2.28051 | 233 ft | 27 kts | 228° |
| 2026-05-05 10:30 | 53.35371 | -2.28170 | 233 ft | 29 kts | 189° |
| 2026-05-05 10:31 | 53.35203 | -2.28355 | 233 ft | 30 kts | 231° |
| 2026-05-05 10:31 | 53.35072 | -2.28630 | 233 ft | 29 kts | 231° |
| 2026-05-05 10:31 | 53.34942 | -2.28873 | 233 ft | 28 kts | 225° |
| 2026-05-05 10:31 | 53.34829 | -2.29073 | 233 ft | 22 kts | 226° |
| 2026-05-05 10:32 | 53.34737 | -2.29254 | 234 ft | 21 kts | 230° |
| 2026-05-05 10:32 | 53.34605 | -2.29343 | 233 ft | 23 kts | 175° |
| 2026-05-05 10:32 | 53.34545 | -2.29210 | 233 ft | 10 kts | 58° |
| 2026-05-05 10:32 | 53.34553 | -2.29193 | 234 ft | 0 kts | 51° |
| 2026-05-05 10:36 | 53.34644 | -2.29004 | 233 ft | 61 kts | 51° |
| 2026-05-05 10:36 | 53.35076 | -2.28114 | 232 ft | 133 kts | 51° |
| 2026-05-05 10:36 | 53.35755 | -2.26716 | 516 ft | 164 kts | 51° |
| 2026-05-05 10:36 | 53.36434 | -2.25271 | 1413 ft | 162 kts | 49° |
| 2026-05-05 10:37 | 53.37156 | -2.23743 | 2090 ft | 177 kts | 50° |
| 2026-05-05 10:37 | 53.37595 | -2.21712 | 2568 ft | 198 kts | 88° |
| 2026-05-05 10:37 | 53.37134 | -2.19567 | 3237 ft | 206 kts | 129° |
| 2026-05-05 10:37 | 53.35977 | -2.18100 | 3982 ft | 207 kts | 147° |
| 2026-05-05 10:38 | 53.34699 | -2.17054 | 4653 ft | 213 kts | 163° |
| 2026-05-05 10:38 | 53.33141 | -2.16858 | 5020 ft | 239 kts | 186° |
| 2026-05-05 10:38 | 53.31400 | -2.17167 | 5495 ft | 263 kts | 186° |
| 2026-05-05 10:38 | 53.29526 | -2.17488 | 6264 ft | 275 kts | 186° |
| 2026-05-05 10:39 | 53.27600 | -2.17804 | 7195 ft | 279 kts | 187° |
| 2026-05-05 10:39 | 53.25656 | -2.18114 | 8117 ft | 283 kts | 187° |
| 2026-05-05 10:39 | 53.23680 | -2.18427 | 9052 ft | 287 kts | 187° |
| 2026-05-05 10:39 | 53.21678 | -2.18741 | 9971 ft | 290 kts | 187° |
| 2026-05-05 10:40 | 53.19610 | -2.19067 | 10462 ft | 309 kts | 187° |
| 2026-05-05 10:40 | 53.17388 | -2.19425 | 10737 ft | 333 kts | 188° |
| 2026-05-05 10:40 | 53.15065 | -2.19795 | 11518 ft | 334 kts | 187° |
| 2026-05-05 10:40 | 53.12746 | -2.20156 | 12374 ft | 336 kts | 187° |
| 2026-05-05 10:41 | 53.10404 | -2.20517 | 13178 ft | 340 kts | 187° |
| 2026-05-05 10:41 | 53.08036 | -2.20884 | 13953 ft | 343 kts | 187° |
| 2026-05-05 10:41 | 53.05647 | -2.21250 | 14651 ft | 346 kts | 187° |
| 2026-05-05 10:41 | 53.03245 | -2.21612 | 15356 ft | 348 kts | 187° |
| 2026-05-05 10:42 | 52.98383 | -2.22320 | 16761 ft | 352 kts | 187° |
| 2026-05-05 10:42 | 52.95946 | -2.22683 | 17499 ft | 353 kts | 187° |
| 2026-05-05 10:42 | 52.93482 | -2.23049 | 18222 ft | 356 kts | 187° |
| 2026-05-05 10:43 | 52.91004 | -2.23409 | 18798 ft | 360 kts | 187° |
| 2026-05-05 10:43 | 52.88467 | -2.23779 | 18993 ft | 370 kts | 187° |
| 2026-05-05 10:43 | 52.85899 | -2.24153 | 19044 ft | 372 kts | 186° |
| 2026-05-05 10:43 | 52.83299 | -2.23883 | 19045 ft | 378 kts | 168° |
| 2026-05-05 10:44 | 52.80874 | -2.22176 | 19045 ft | 383 kts | 152° |
| 2026-05-05 10:44 | 52.78597 | -2.19854 | 19039 ft | 384 kts | 150° |
| 2026-05-05 10:44 | 52.76333 | -2.17494 | 19038 ft | 384 kts | 150° |
| 2026-05-05 10:44 | 52.74074 | -2.15137 | 19027 ft | 384 kts | 150° |
| 2026-05-05 10:45 | 52.71813 | -2.12805 | 19032 ft | 384 kts | 150° |
| 2026-05-05 10:45 | 52.69539 | -2.10471 | 19032 ft | 384 kts | 150° |
| 2026-05-05 10:45 | 52.67272 | -2.08147 | 19033 ft | 384 kts | 150° |
| 2026-05-05 10:45 | 52.65029 | -2.05850 | 19032 ft | 384 kts | 150° |
| 2026-05-05 10:46 | 52.62756 | -2.03524 | 19033 ft | 384 kts | 150° |
| 2026-05-05 10:46 | 52.60500 | -2.01132 | 19032 ft | 393 kts | 145° |
| 2026-05-05 10:46 | 52.58348 | -1.98216 | 19019 ft | 404 kts | 142° |
| 2026-05-05 10:46 | 52.56198 | -1.95207 | 19023 ft | 407 kts | 141° |
| 2026-05-05 10:47 | 52.54056 | -1.92175 | 19021 ft | 407 kts | 141° |
| 2026-05-05 10:47 | 52.52630 | -1.90156 | 19022 ft | 408 kts | 141° |
| 2026-05-05 10:47 | 52.50486 | -1.87121 | 19028 ft | 407 kts | 141° |
| 2026-05-05 10:47 | 52.48345 | -1.84094 | 19023 ft | 406 kts | 141° |
| 2026-05-05 10:48 | 52.46204 | -1.81080 | 19031 ft | 405 kts | 141° |
| 2026-05-05 10:48 | 52.44058 | -1.78072 | 19030 ft | 405 kts | 141° |
| 2026-05-05 10:48 | 52.41914 | -1.75076 | 19029 ft | 405 kts | 141° |
| 2026-05-05 10:48 | 52.39766 | -1.72089 | 19027 ft | 405 kts | 141° |
| 2026-05-05 10:49 | 52.37616 | -1.69104 | 19028 ft | 405 kts | 141° |
| 2026-05-05 10:49 | 52.35465 | -1.66112 | 19027 ft | 405 kts | 141° |
| 2026-05-05 10:49 | 52.33330 | -1.63115 | 19026 ft | 405 kts | 141° |
| 2026-05-05 10:49 | 52.31201 | -1.60104 | 19023 ft | 405 kts | 141° |
| 2026-05-05 10:50 | 52.29070 | -1.57088 | 19003 ft | 405 kts | 141° |
| 2026-05-05 10:50 | 52.26936 | -1.54069 | 18996 ft | 405 kts | 140° |
| 2026-05-05 10:50 | 52.24816 | -1.51074 | 19006 ft | 404 kts | 141° |
| 2026-05-05 10:50 | 52.22683 | -1.48069 | 19011 ft | 404 kts | 141° |
| 2026-05-05 10:51 | 52.20556 | -1.45082 | 19009 ft | 403 kts | 140° |
| 2026-05-05 10:51 | 52.18452 | -1.42138 | 19008 ft | 403 kts | 140° |
| 2026-05-05 10:51 | 52.16324 | -1.39169 | 19007 ft | 403 kts | 140° |
| 2026-05-05 10:51 | 52.14192 | -1.36200 | 19007 ft | 403 kts | 140° |
| 2026-05-05 10:52 | 52.12064 | -1.33239 | 19004 ft | 402 kts | 140° |
| 2026-05-05 10:52 | 52.09915 | -1.30251 | 19003 ft | 402 kts | 141° |
| 2026-05-05 10:52 | 52.07818 | -1.27338 | 19000 ft | 402 kts | 141° |
| 2026-05-05 10:52 | 52.05690 | -1.24385 | 18999 ft | 402 kts | 141° |
| 2026-05-05 10:53 | 52.03586 | -1.21465 | 18619 ft | 390 kts | 141° |
| 2026-05-05 10:53 | 52.01577 | -1.18679 | 18019 ft | 372 kts | 141° |
| 2026-05-05 10:53 | 51.99623 | -1.15975 | 17308 ft | 366 kts | 140° |
| 2026-05-05 10:53 | 51.97693 | -1.13311 | 16517 ft | 361 kts | 140° |
| 2026-05-05 10:54 | 51.95877 | -1.10520 | 15810 ft | 361 kts | 131° |
| 2026-05-05 10:54 | 51.94398 | -1.07254 | 15247 ft | 359 kts | 123° |
| 2026-05-05 10:54 | 51.93019 | -1.03903 | 14690 ft | 357 kts | 123° |
| 2026-05-05 10:54 | 51.91637 | -1.00567 | 14140 ft | 355 kts | 123° |
| 2026-05-05 10:55 | 51.90262 | -0.97252 | 13590 ft | 353 kts | 123° |
| 2026-05-05 10:55 | 51.88898 | -0.93965 | 13027 ft | 351 kts | 123° |
| 2026-05-05 10:55 | 51.87539 | -0.90694 | 12479 ft | 348 kts | 123° |
| 2026-05-05 10:55 | 51.86203 | -0.87480 | 12185 ft | 336 kts | 123° |
| 2026-05-05 10:56 | 51.84938 | -0.84438 | 12064 ft | 317 kts | 123° |
| 2026-05-05 10:56 | 51.83739 | -0.81559 | 11726 ft | 302 kts | 123° |
| 2026-05-05 10:56 | 51.82567 | -0.78751 | 11215 ft | 303 kts | 123° |
| 2026-05-05 10:56 | 51.81405 | -0.75963 | 10698 ft | 301 kts | 123° |
| 2026-05-05 10:57 | 51.80249 | -0.73192 | 10202 ft | 294 kts | 123° |
| 2026-05-05 10:57 | 51.79124 | -0.70497 | 9851 ft | 283 kts | 123° |
| 2026-05-05 10:57 | 51.78041 | -0.67906 | 9495 ft | 273 kts | 123° |
| 2026-05-05 10:57 | 51.76995 | -0.65411 | 9161 ft | 264 kts | 123° |
| 2026-05-05 10:58 | 51.75981 | -0.62997 | 8818 ft | 256 kts | 122° |
| 2026-05-05 10:58 | 51.74988 | -0.60639 | 8541 ft | 254 kts | 123° |
| 2026-05-05 10:58 | 51.74002 | -0.58293 | 8280 ft | 252 kts | 124° |
| 2026-05-05 10:58 | 51.73024 | -0.55961 | 8062 ft | 249 kts | 123° |
| 2026-05-05 10:59 | 51.72028 | -0.53692 | 7823 ft | 247 kts | 131° |
| 2026-05-05 10:59 | 51.70614 | -0.52186 | 7560 ft | 246 kts | 162° |
| 2026-05-05 10:59 | 51.68929 | -0.52061 | 7281 ft | 246 kts | 194° |
| 2026-05-05 10:59 | 51.67450 | -0.53332 | 6988 ft | 246 kts | 224° |
| 2026-05-05 11:00 | 51.66296 | -0.55364 | 6704 ft | 246 kts | 230° |
| 2026-05-05 11:00 | 51.65209 | -0.57504 | 6389 ft | 248 kts | 231° |
| 2026-05-05 11:00 | 51.64136 | -0.59666 | 6120 ft | 246 kts | 231° |
| 2026-05-05 11:00 | 51.63068 | -0.61825 | 5829 ft | 245 kts | 230° |
| 2026-05-05 11:01 | 51.62003 | -0.63972 | 5469 ft | 246 kts | 231° |
| 2026-05-05 11:01 | 51.60957 | -0.66082 | 5318 ft | 238 kts | 231° |
| 2026-05-05 11:01 | 51.59946 | -0.68110 | 5177 ft | 230 kts | 231° |
| 2026-05-05 11:01 | 51.58958 | -0.70085 | 5044 ft | 223 kts | 232° |
| 2026-05-05 11:02 | 51.58007 | -0.71993 | 4924 ft | 213 kts | 231° |
| 2026-05-05 11:02 | 51.57102 | -0.73811 | 4648 ft | 206 kts | 231° |
| 2026-05-05 11:02 | 51.56202 | -0.75621 | 4358 ft | 207 kts | 231° |
| 2026-05-05 11:02 | 51.55301 | -0.77405 | 4150 ft | 204 kts | 229° |
| 2026-05-05 11:03 | 51.54156 | -0.78650 | 3946 ft | 198 kts | 191° |
| 2026-05-05 11:03 | 51.52798 | -0.79004 | 3655 ft | 199 kts | 183° |
| 2026-05-05 11:03 | 51.51414 | -0.79165 | 3424 ft | 198 kts | 182° |
| 2026-05-05 11:03 | 51.50037 | -0.79259 | 3224 ft | 197 kts | 173° |
| 2026-05-05 11:04 | 51.48803 | -0.78514 | 3140 ft | 189 kts | 135° |
| 2026-05-05 11:04 | 51.48002 | -0.76909 | 3044 ft | 185 kts | 113° |
| 2026-05-05 11:04 | 51.47633 | -0.74964 | 3023 ft | 182 kts | 91° |
| 2026-05-05 11:04 | 51.47627 | -0.73004 | 2992 ft | 168 kts | 85° |
| 2026-05-05 11:05 | 51.47635 | -0.71166 | 2852 ft | 165 kts | 85° |
| 2026-05-05 11:05 | 51.47645 | -0.69348 | 2655 ft | 162 kts | 85° |
| 2026-05-05 11:05 | 51.47655 | -0.67541 | 2458 ft | 162 kts | 84° |
| 2026-05-05 11:05 | 51.47666 | -0.65743 | 2266 ft | 161 kts | 85° |
| 2026-05-05 11:06 | 51.47676 | -0.63952 | 2038 ft | 160 kts | 84° |
| 2026-05-05 11:06 | 51.47685 | -0.62160 | 1807 ft | 161 kts | 86° |
| 2026-05-05 11:06 | 51.47694 | -0.60374 | 1583 ft | 159 kts | 85° |
| 2026-05-05 11:06 | 51.47703 | -0.58600 | 1362 ft | 158 kts | 86° |
| 2026-05-05 11:07 | 51.47711 | -0.56840 | 1145 ft | 157 kts | 85° |
| 2026-05-05 11:07 | 51.47719 | -0.55122 | 946 ft | 148 kts | 84° |
| 2026-05-05 11:07 | 51.47725 | -0.53550 | 743 ft | 136 kts | 84° |
| 2026-05-05 11:07 | 51.47735 | -0.52034 | 580 ft | 135 kts | 85° |
| 2026-05-05 11:08 | 51.47748 | -0.50541 | 386 ft | 133 kts | 86° |
| 2026-05-05 11:08 | 51.47753 | -0.49051 | 211 ft | 133 kts | 86° |
| 2026-05-05 11:08 | 51.47756 | -0.47627 | 93 ft | 123 kts | 86° |
| 2026-05-05 11:08 | 51.47758 | -0.46473 | 92 ft | 81 kts | 90° |
| 2026-05-05 11:09 | 51.47761 | -0.45775 | 84 ft | 42 kts | 90° |
| 2026-05-05 11:09 | 51.47743 | -0.45502 | 87 ft | 16 kts | 124° |
| 2026-05-05 11:09 | 51.47642 | -0.45464 | 86 ft | 15 kts | 182° |
| 2026-05-05 11:09 | 51.47596 | -0.45598 | 86 ft | 17 kts | 269° |
| 2026-05-05 11:10 | 51.47596 | -0.45806 | 88 ft | 20 kts | 270° |
| 2026-05-05 11:10 | 51.47596 | -0.46052 | 90 ft | 24 kts | 270° |
| 2026-05-05 11:10 | 51.47596 | -0.46330 | 91 ft | 26 kts | 269° |
| 2026-05-05 11:10 | 51.47591 | -0.46623 | 86 ft | 27 kts | 270° |
| 2026-05-05 11:11 | 51.47587 | -0.46936 | 88 ft | 29 kts | 268° |
| 2026-05-05 11:11 | 51.47580 | -0.47266 | 90 ft | 29 kts | 270° |
| 2026-05-05 11:11 | 51.47580 | -0.47588 | 88 ft | 28 kts | 269° |
| 2026-05-05 11:11 | 51.47579 | -0.47874 | 89 ft | 23 kts | 270° |
| 2026-05-05 11:12 | 51.47578 | -0.48084 | 86 ft | 17 kts | 271° |
| 2026-05-05 11:12 | 51.47577 | -0.48293 | 88 ft | 19 kts | 270° |
| 2026-05-05 11:12 | 51.47557 | -0.48466 | 88 ft | 13 kts | 219° |
| 2026-05-05 11:12 | 51.47475 | -0.48477 | 86 ft | 12 kts | 180° |
| 2026-05-05 11:13 | 51.47413 | -0.48476 | 86 ft | 4 kts | 181° |
| 2026-05-05 11:13 | 51.47400 | -0.48514 | 88 ft | 5 kts | 268° |
| 2026-05-05 11:13 | 51.47399 | -0.48572 | 86 ft | 3 kts | 269° |
| 2026-05-05 11:13 | 51.47399 | -0.48589 | 86 ft | 1 kts | 270° |
| 2026-05-05 11:14 | 51.47399 | -0.48590 | 86 ft | 0 kts | 270° |